createdAt,value
2017-09-06T00:00:01.772Z,90.50
2017-09-06T00:02:29.290Z,90.80
2017-09-06T00:04:57.718Z,90.80
2017-09-06T00:07:25.240Z,90.90
2017-09-06T00:09:52.814Z,90.80
2017-09-06T00:12:20.338Z,90.80
2017-09-06T00:14:47.863Z,90.80
2017-09-06T00:17:15.413Z,90.70
2017-09-06T00:19:42.971Z,90.70
2017-09-06T00:22:10.498Z,90.60
2017-09-06T00:24:38.053Z,90.70
2017-09-06T00:27:05.574Z,90.60
2017-09-06T00:29:33.122Z,90.70
2017-09-06T00:32:00.643Z,90.70
2017-09-06T00:34:28.194Z,90.70
2017-09-06T00:36:55.710Z,90.70
2017-09-06T00:39:23.257Z,90.70
2017-09-06T00:41:50.774Z,90.60
2017-09-06T00:44:18.334Z,90.60
2017-09-06T00:46:45.922Z,90.40
2017-09-06T00:49:13.470Z,90.70
2017-09-06T00:51:41.041Z,90.70
2017-09-06T00:54:08.562Z,90.80
2017-09-06T00:56:36.090Z,90.80
2017-09-06T00:59:03.649Z,90.60
2017-09-06T01:01:31.173Z,90.50
2017-09-06T01:03:58.761Z,90.70
2017-09-06T01:06:26.290Z,90.70
2017-09-06T01:08:53.816Z,90.90
2017-09-06T01:11:21.385Z,90.70
2017-09-06T01:13:48.933Z,90.70
2017-09-06T01:16:16.467Z,90.80
2017-09-06T01:18:44.022Z,90.70
2017-09-06T01:21:11.549Z,90.70
2017-09-06T01:23:39.075Z,90.70
2017-09-06T01:26:06.638Z,90.80
2017-09-06T01:28:34.195Z,90.70
2017-09-06T01:31:01.762Z,90.60
2017-09-06T01:33:29.291Z,90.70
2017-09-06T01:35:56.814Z,90.80
2017-09-06T01:38:24.375Z,90.60
2017-09-06T01:40:51.923Z,90.80
2017-09-06T01:43:19.454Z,90.50
2017-09-06T01:45:47.034Z,90.60
2017-09-06T01:48:14.562Z,90.60
2017-09-06T01:50:42.082Z,90.60
2017-09-06T01:53:09.638Z,90.50
2017-09-06T01:55:37.170Z,90.50
2017-09-06T01:58:04.735Z,90.70
2017-09-06T02:00:32.253Z,90.60
2017-09-06T02:02:59.804Z,90.50
2017-09-06T02:05:27.331Z,90.50
2017-09-06T02:07:54.898Z,90.60
2017-09-06T02:10:22.427Z,90.60
2017-09-06T02:12:49.953Z,90.70
2017-09-06T02:15:17.503Z,90.80
2017-09-06T02:17:45.030Z,90.70
2017-09-06T02:20:12.594Z,90.80
2017-09-06T02:22:40.119Z,90.80
2017-09-06T02:25:07.634Z,90.80
2017-09-06T02:27:35.187Z,90.70
2017-09-06T02:30:02.716Z,90.80
2017-09-06T02:32:30.283Z,90.80
2017-09-06T02:34:57.810Z,90.60
2017-09-06T02:37:25.359Z,90.80
2017-09-06T02:39:52.881Z,90.90
2017-09-06T02:42:20.437Z,91.00
2017-09-06T02:44:48.735Z,91.20
2017-09-06T02:47:16.298Z,91.20
2017-09-06T02:49:43.828Z,92.90
2017-09-06T02:52:11.390Z,93.30
2017-09-06T02:54:38.942Z,93.80
2017-09-06T02:57:06.465Z,94.30
2017-09-06T02:59:34.020Z,94.40
2017-09-06T03:02:01.540Z,94.60
2017-09-06T03:04:29.102Z,94.90
2017-09-06T03:06:56.648Z,95.00
2017-09-06T03:09:24.174Z,95.20
2017-09-06T03:11:51.736Z,95.00
2017-09-06T03:14:19.263Z,95.00
2017-09-06T03:16:46.818Z,95.40
2017-09-06T03:19:14.471Z,95.70
2017-09-06T03:21:42.031Z,96.00
2017-09-06T03:24:09.550Z,96.10
2017-09-06T03:26:37.074Z,96.30
2017-09-06T03:29:04.642Z,96.60
2017-09-06T03:31:32.162Z,96.80
2017-09-06T03:33:59.679Z,96.90
2017-09-06T03:36:27.242Z,96.60
2017-09-06T03:38:54.823Z,96.50
2017-09-06T03:41:22.337Z,96.20
2017-09-06T03:43:49.871Z,96.00
2017-09-06T03:46:17.450Z,96.00
2017-09-06T03:48:44.985Z,96.00
2017-09-06T03:51:12.559Z,96.10
2017-09-06T03:53:40.086Z,95.80
2017-09-06T03:56:07.611Z,96.00
2017-09-06T03:58:35.174Z,96.10
2017-09-06T04:01:02.730Z,96.10
2017-09-06T04:03:30.262Z,96.30
2017-09-06T04:05:57.818Z,96.30
2017-09-06T04:08:25.653Z,96.00
2017-09-06T04:10:53.212Z,95.70
2017-09-06T04:13:20.978Z,96.20
2017-09-06T04:15:48.536Z,96.10
2017-09-06T04:18:16.054Z,96.10
2017-09-06T04:20:43.633Z,96.00
2017-09-06T04:23:11.154Z,96.20
2017-09-06T04:25:38.714Z,95.80
2017-09-06T04:28:06.242Z,95.80
2017-09-06T04:30:33.790Z,95.80
2017-09-06T04:33:01.323Z,96.00
2017-09-06T04:35:28.885Z,96.00
2017-09-06T04:37:56.405Z,96.00
2017-09-06T04:40:23.950Z,96.30
2017-09-06T04:42:51.471Z,96.00
2017-09-06T04:45:19.038Z,96.00
2017-09-06T04:47:46.603Z,96.20
2017-09-06T04:50:14.131Z,96.10
2017-09-06T04:52:41.655Z,96.50
2017-09-06T04:55:09.227Z,96.50
2017-09-06T04:57:36.757Z,96.70
2017-09-06T05:00:04.286Z,97.00
2017-09-06T05:02:31.839Z,96.90
2017-09-06T05:04:59.353Z,97.00
2017-09-06T05:07:26.902Z,97.10
2017-09-06T05:09:54.419Z,97.20
2017-09-06T05:12:21.971Z,97.30
2017-09-06T05:14:49.493Z,97.50
2017-09-06T05:17:17.050Z,97.40
2017-09-06T05:19:44.582Z,97.50
2017-09-06T05:22:12.147Z,97.50
2017-09-06T05:24:39.676Z,97.40
2017-09-06T05:27:07.209Z,97.30
2017-09-06T05:29:34.768Z,97.20
2017-09-06T05:32:02.291Z,97.20
2017-09-06T05:34:29.850Z,97.20
2017-09-06T05:36:57.374Z,97.10
2017-09-06T05:39:24.957Z,97.10
2017-09-06T05:41:52.488Z,96.90
2017-09-06T05:44:20.022Z,96.90
2017-09-06T05:46:47.594Z,96.70
2017-09-06T05:49:15.122Z,96.80
2017-09-06T05:51:42.704Z,96.90
2017-09-06T05:54:10.227Z,96.80
2017-09-06T05:56:37.754Z,96.60
2017-09-06T05:59:05.309Z,96.30
2017-09-06T06:01:32.873Z,96.20
2017-09-06T06:04:00.394Z,96.40
2017-09-06T06:06:27.938Z,96.00
2017-09-06T06:08:55.508Z,96.10
2017-09-06T06:11:23.037Z,96.00
2017-09-06T06:13:50.606Z,95.80
2017-09-06T06:16:18.129Z,95.80
2017-09-06T06:18:45.665Z,95.80
2017-09-06T06:21:13.214Z,96.00
2017-09-06T06:23:40.750Z,96.40
2017-09-06T06:26:08.308Z,96.70
2017-09-06T06:28:35.874Z,96.60
2017-09-06T06:31:03.431Z,96.50
2017-09-06T06:33:31.006Z,96.50
2017-09-06T06:35:58.527Z,96.90
2017-09-06T06:38:26.063Z,97.00
2017-09-06T06:40:53.627Z,96.70
2017-09-06T06:43:21.158Z,96.60
2017-09-06T06:45:48.778Z,96.40
2017-09-06T06:48:16.334Z,96.50
2017-09-06T06:50:43.906Z,96.50
2017-09-06T06:53:11.449Z,96.30
2017-09-06T06:55:38.970Z,96.40
2017-09-06T06:58:06.530Z,96.60
2017-09-06T07:00:34.053Z,96.30
2017-09-06T07:03:01.626Z,95.80
2017-09-06T07:05:29.163Z,95.60
2017-09-06T07:07:56.690Z,95.60
2017-09-06T07:10:24.254Z,95.40
2017-09-06T07:12:51.792Z,94.80
2017-09-06T07:15:19.382Z,94.80
2017-09-06T07:17:46.926Z,94.90
2017-09-06T07:20:14.488Z,94.80
2017-09-06T07:22:42.054Z,94.80
2017-09-06T07:25:09.613Z,94.30
2017-09-06T07:27:37.197Z,93.90
2017-09-06T07:30:04.744Z,92.80
2017-09-06T07:32:32.289Z,92.90
2017-09-06T07:34:59.810Z,92.90
2017-09-06T07:37:27.421Z,92.60
2017-09-06T07:39:54.935Z,92.60
2017-09-06T07:42:22.461Z,92.50
2017-09-06T07:44:50.013Z,92.60
2017-09-06T07:47:17.537Z,92.80
2017-09-06T07:49:45.870Z,92.20
2017-09-06T07:52:13.389Z,92.20
2017-09-06T07:54:40.921Z,92.30
2017-09-06T07:57:08.482Z,92.60
2017-09-06T07:59:36.010Z,91.90
2017-09-06T08:02:03.574Z,91.90
2017-09-06T08:04:31.150Z,91.90
2017-09-06T08:07:04.486Z,91.50
2017-09-06T08:09:32.013Z,91.30
2017-09-06T08:11:59.542Z,91.40
2017-09-06T08:14:27.106Z,91.00
2017-09-06T08:16:54.646Z,91.00
2017-09-06T08:19:22.174Z,91.00
2017-09-06T08:21:49.738Z,91.20
2017-09-06T08:24:17.281Z,88.50
2017-09-06T08:26:44.842Z,89.50
2017-09-06T08:29:12.370Z,89.70
2017-09-06T08:31:39.933Z,88.90
2017-09-06T08:34:07.457Z,88.30
2017-09-06T08:36:34.981Z,88.90
2017-09-06T08:39:02.542Z,90.40
2017-09-06T08:41:30.070Z,89.70
2017-09-06T08:43:57.597Z,90.30
2017-09-06T08:46:25.165Z,90.00
2017-09-06T08:48:52.735Z,89.20
2017-09-06T08:51:20.279Z,89.80
2017-09-06T08:53:47.811Z,90.00
2017-09-06T08:56:15.374Z,89.90
2017-09-06T08:58:42.897Z,88.80
2017-09-06T09:01:10.418Z,89.10
2017-09-06T09:03:37.973Z,88.40
2017-09-06T09:06:05.536Z,87.70
2017-09-06T09:08:33.054Z,88.30
2017-09-06T09:11:00.606Z,87.90
2017-09-06T09:13:28.125Z,87.90
2017-09-06T09:15:55.686Z,88.40
2017-09-06T09:18:23.222Z,87.40
2017-09-06T09:20:50.778Z,86.60
2017-09-06T09:23:18.345Z,86.30
2017-09-06T09:25:45.900Z,84.20
2017-09-06T09:28:13.462Z,84.10
2017-09-06T09:30:40.986Z,84.40
2017-09-06T09:33:08.510Z,81.10
2017-09-06T09:35:36.076Z,77.80
2017-09-06T09:38:03.756Z,77.30
2017-09-06T09:40:31.309Z,78.60
2017-09-06T09:42:58.877Z,79.70
2017-09-06T09:45:26.393Z,80.30
2017-09-06T09:47:53.966Z,79.70
2017-09-06T09:50:21.490Z,80.10
2017-09-06T09:52:49.014Z,80.90
2017-09-06T09:55:16.574Z,80.70
2017-09-06T09:57:44.098Z,80.90
2017-09-06T10:03:02.498Z,80.10
2017-09-06T10:05:30.031Z,77.20
2017-09-06T10:07:57.570Z,75.50
2017-09-06T10:10:25.128Z,73.60
2017-09-06T10:12:52.665Z,72.30
2017-09-06T10:15:20.234Z,72.50
2017-09-06T10:17:47.763Z,72.00
2017-09-06T10:20:15.302Z,73.40
2017-09-06T10:22:43.259Z,73.40
2017-09-06T10:25:10.787Z,74.20
2017-09-06T10:27:38.315Z,73.70
2017-09-06T10:30:06.133Z,73.30
2017-09-06T10:32:33.661Z,73.70
2017-09-06T10:35:01.191Z,75.30
2017-09-06T10:37:28.867Z,75.60
2017-09-06T10:39:56.402Z,76.30
2017-09-06T10:42:23.924Z,75.10
2017-09-06T10:44:51.483Z,74.50
2017-09-06T10:47:19.011Z,75.10
2017-09-06T10:49:46.570Z,74.40
2017-09-06T10:52:14.098Z,73.90
2017-09-06T10:54:41.769Z,72.60
2017-09-06T10:57:09.293Z,73.00
2017-09-06T10:59:36.822Z,70.60
2017-09-06T11:02:04.636Z,70.40
2017-09-06T11:04:32.180Z,68.40
2017-09-06T11:06:59.722Z,66.90
2017-09-06T11:09:27.395Z,68.60
2017-09-06T11:11:54.919Z,66.70
2017-09-06T11:14:22.439Z,67.60
2017-09-06T11:16:50.242Z,64.80
2017-09-06T11:19:17.805Z,65.70
2017-09-06T11:21:45.329Z,66.40
2017-09-06T11:24:12.916Z,66.90
2017-09-06T11:26:40.462Z,66.30
2017-09-06T11:29:08.136Z,66.70
2017-09-06T11:31:35.674Z,67.90
2017-09-06T11:34:03.214Z,67.50
2017-09-06T11:36:30.995Z,66.90
2017-09-06T11:38:58.531Z,66.90
2017-09-06T11:41:26.064Z,67.60
2017-09-06T11:43:53.631Z,66.00
2017-09-06T11:46:21.841Z,66.10
2017-09-06T11:48:49.415Z,66.00
2017-09-06T11:51:16.974Z,66.40
2017-09-06T11:53:44.542Z,67.20
2017-09-06T11:56:12.075Z,67.30
2017-09-06T11:58:39.741Z,67.50
2017-09-06T12:01:07.274Z,67.90
2017-09-06T12:03:34.800Z,67.90
2017-09-06T12:06:02.472Z,68.60
2017-09-06T12:08:30.027Z,67.60
2017-09-06T12:10:57.563Z,69.10
2017-09-06T12:13:25.283Z,68.10
2017-09-06T12:15:52.807Z,66.30
2017-09-06T12:18:20.339Z,65.50
2017-09-06T12:20:48.552Z,64.60
2017-09-06T12:23:16.079Z,61.30
2017-09-06T12:25:43.954Z,59.10
2017-09-06T12:28:11.502Z,60.00
2017-09-06T12:30:39.030Z,59.60
2017-09-06T12:33:07.515Z,60.50
2017-09-06T12:35:35.046Z,61.70
2017-09-06T12:38:02.620Z,62.40
2017-09-06T12:40:30.144Z,63.10
2017-09-06T12:42:57.714Z,63.60
2017-09-06T12:45:25.234Z,61.70
2017-09-06T12:47:52.810Z,61.90
2017-09-06T12:50:20.342Z,61.50
2017-09-06T12:52:47.873Z,61.10
2017-09-06T12:55:15.450Z,62.10
2017-09-06T12:57:42.974Z,59.60
2017-09-06T13:00:10.554Z,58.90
2017-09-06T13:02:38.118Z,59.10
2017-09-06T13:05:05.643Z,56.50
2017-09-06T13:07:33.198Z,56.80
2017-09-06T13:10:00.750Z,56.70
2017-09-06T13:12:28.302Z,57.60
2017-09-06T13:14:56.223Z,55.40
2017-09-06T13:17:23.822Z,56.70
2017-09-06T13:19:51.346Z,56.90
2017-09-06T13:22:18.955Z,57.00
2017-09-06T13:24:46.493Z,58.30
2017-09-06T13:27:14.074Z,57.70
2017-09-06T13:29:41.600Z,57.60
2017-09-06T13:32:09.122Z,56.90
2017-09-06T13:34:36.783Z,57.10
2017-09-06T13:37:05.037Z,58.80
2017-09-06T13:39:32.572Z,58.80
2017-09-06T13:42:00.102Z,58.30
2017-09-06T13:44:27.887Z,58.40
2017-09-06T13:46:55.422Z,58.00
2017-09-06T13:49:22.964Z,57.90
2017-09-06T13:51:50.535Z,58.30
2017-09-06T13:54:18.123Z,58.70
2017-09-06T13:56:45.652Z,58.60
2017-09-06T13:59:13.595Z,58.50
2017-09-06T14:01:41.159Z,58.50
2017-09-06T14:04:08.687Z,58.70
2017-09-06T14:06:36.214Z,58.20
2017-09-06T14:09:03.783Z,58.30
2017-09-06T14:11:31.325Z,59.00
2017-09-06T14:13:59.074Z,58.90
2017-09-06T14:16:26.634Z,59.10
2017-09-06T14:18:54.209Z,59.70
2017-09-06T14:21:21.958Z,59.70
2017-09-06T14:23:49.490Z,59.50
2017-09-06T14:26:17.022Z,60.00
2017-09-06T14:28:44.586Z,60.60
2017-09-06T14:31:12.110Z,59.10
2017-09-06T14:33:39.698Z,59.50
2017-09-06T14:36:07.231Z,59.40
2017-09-06T14:38:34.764Z,60.00
2017-09-06T14:41:02.334Z,60.70
2017-09-06T14:43:29.867Z,61.00
2017-09-06T14:45:57.414Z,59.70
2017-09-06T14:48:25.355Z,59.50
2017-09-06T14:50:52.887Z,60.30
2017-09-06T14:53:20.459Z,59.30
2017-09-06T14:55:47.997Z,60.00
2017-09-06T14:58:15.526Z,60.20
2017-09-06T15:00:43.082Z,61.20
2017-09-06T15:03:10.644Z,61.00
2017-09-06T15:05:38.171Z,62.10
2017-09-06T15:08:05.749Z,61.60
2017-09-06T15:10:33.291Z,62.20
2017-09-06T15:13:00.836Z,62.20
2017-09-06T15:15:28.408Z,63.90
2017-09-06T15:17:56.152Z,64.20
2017-09-06T15:20:23.678Z,64.70
2017-09-06T15:22:51.219Z,68.00
2017-09-06T15:25:18.810Z,69.20
2017-09-06T15:27:46.339Z,70.10
2017-09-06T15:30:13.866Z,69.80
2017-09-06T15:32:41.430Z,70.90
2017-09-06T15:35:08.981Z,70.20
2017-09-06T15:37:37.952Z,70.90
2017-09-06T15:40:05.523Z,70.90
2017-09-06T15:42:33.078Z,70.90
2017-09-06T15:45:00.891Z,71.60
2017-09-06T15:47:28.567Z,71.40
2017-09-06T15:49:56.102Z,71.60
2017-09-06T15:52:23.638Z,71.60
2017-09-06T15:54:51.304Z,71.70
2017-09-06T15:57:18.836Z,71.60
2017-09-06T15:59:46.389Z,71.60
2017-09-06T16:02:14.103Z,70.60
2017-09-06T16:04:41.627Z,70.80
2017-09-06T16:07:09.194Z,70.00
2017-09-06T16:09:36.718Z,69.60
2017-09-06T16:12:04.280Z,68.60
2017-09-06T16:14:31.839Z,67.50
2017-09-06T16:16:59.387Z,67.00
2017-09-06T16:19:26.905Z,67.00
2017-09-06T16:21:54.474Z,65.60
2017-09-06T16:24:22.034Z,66.80
2017-09-06T16:26:49.563Z,65.80
2017-09-06T16:29:17.304Z,66.40
2017-09-06T16:31:44.840Z,65.60
2017-09-06T16:34:13.142Z,65.70
2017-09-06T16:36:40.759Z,65.50
2017-09-06T16:39:08.290Z,65.50
2017-09-06T16:41:35.823Z,65.80
2017-09-06T16:44:03.382Z,64.80
2017-09-06T16:46:30.916Z,65.70
2017-09-06T16:48:58.578Z,64.70
2017-09-06T16:51:26.262Z,64.80
2017-09-06T16:53:53.800Z,63.40
2017-09-06T16:56:21.355Z,63.90
2017-09-06T16:58:49.776Z,62.40
2017-09-06T17:01:17.316Z,62.30
2017-09-06T17:03:44.882Z,62.10
2017-09-06T17:06:12.429Z,63.40
2017-09-06T17:08:40.034Z,62.30
2017-09-06T17:11:07.563Z,63.10
2017-09-06T17:13:35.091Z,63.10
2017-09-06T17:16:02.651Z,63.50
2017-09-06T17:18:30.183Z,63.90
2017-09-06T17:20:57.747Z,64.00
2017-09-06T17:23:25.284Z,63.20
2017-09-06T17:25:52.854Z,63.60
2017-09-06T17:28:20.385Z,63.80
2017-09-06T17:30:47.959Z,63.30
2017-09-06T17:33:15.527Z,63.70
2017-09-06T17:35:43.155Z,63.10
2017-09-06T17:38:10.699Z,63.60
2017-09-06T17:40:38.329Z,63.20
2017-09-06T17:43:05.880Z,63.30
2017-09-06T17:45:33.484Z,63.90
2017-09-06T17:48:01.010Z,63.80
2017-09-06T17:50:28.554Z,64.20
2017-09-06T17:52:56.127Z,64.20
2017-09-06T17:55:23.650Z,64.80
2017-09-06T17:57:51.240Z,65.00
2017-09-06T18:00:18.795Z,64.80
2017-09-06T18:02:46.382Z,64.80
2017-09-06T18:05:14.826Z,65.30
2017-09-06T18:07:42.352Z,65.30
2017-09-06T18:10:09.888Z,65.50
2017-09-06T18:12:37.458Z,66.10
2017-09-06T18:15:04.999Z,66.50
2017-09-06T18:17:32.571Z,66.70
2017-09-06T18:20:00.102Z,66.90
2017-09-06T18:22:27.649Z,66.40
2017-09-06T18:24:55.302Z,67.00
2017-09-06T18:27:22.863Z,66.70
2017-09-06T18:29:50.453Z,66.60
2017-09-06T18:32:18.015Z,67.30
2017-09-06T18:34:45.720Z,67.50
2017-09-06T18:37:13.411Z,67.50
2017-09-06T18:39:41.091Z,67.60
2017-09-06T18:42:08.662Z,68.30
2017-09-06T18:44:36.200Z,68.20
2017-09-06T18:47:03.754Z,68.10
2017-09-06T18:49:31.315Z,68.00
2017-09-06T18:52:00.144Z,68.00
2017-09-06T18:54:27.839Z,68.20
2017-09-06T18:56:55.394Z,68.80
2017-09-06T18:59:22.971Z,69.20
2017-09-06T19:01:50.518Z,69.60
2017-09-06T19:04:18.055Z,69.60
2017-09-06T19:06:45.623Z,70.10
2017-09-06T19:09:13.151Z,70.10
2017-09-06T19:11:40.680Z,70.30
2017-09-06T19:14:08.243Z,70.70
2017-09-06T19:16:35.779Z,70.30
2017-09-06T19:19:03.342Z,71.20
2017-09-06T19:21:31.768Z,71.50
2017-09-06T19:23:59.456Z,71.40
2017-09-06T19:26:26.987Z,71.30
2017-09-06T19:28:54.530Z,71.30
2017-09-06T19:31:22.216Z,72.00
2017-09-06T19:33:49.758Z,71.90
2017-09-06T19:36:17.290Z,71.80
2017-09-06T19:38:45.237Z,71.50
2017-09-06T19:41:12.763Z,72.00
2017-09-06T19:43:40.334Z,71.90
2017-09-06T19:46:07.862Z,72.00
2017-09-06T19:48:35.434Z,71.60
2017-09-06T19:51:02.981Z,72.00
2017-09-06T19:53:30.514Z,72.40
2017-09-06T19:55:58.074Z,72.50
2017-09-06T19:58:25.619Z,72.70
2017-09-06T20:00:53.186Z,73.10
2017-09-06T20:03:20.727Z,73.00
2017-09-06T20:05:48.299Z,73.50
2017-09-06T20:08:15.830Z,73.50
2017-09-06T20:10:43.398Z,73.80
2017-09-06T20:13:10.926Z,73.80
2017-09-06T20:15:38.453Z,74.20
2017-09-06T20:18:06.021Z,74.50
2017-09-06T20:20:33.552Z,73.60
2017-09-06T20:23:01.118Z,74.20
2017-09-06T20:25:28.686Z,73.80
2017-09-06T20:27:56.260Z,74.30
2017-09-06T20:30:23.864Z,73.80
2017-09-06T20:32:51.379Z,74.50
2017-09-06T20:35:18.948Z,74.60
2017-09-06T20:37:46.482Z,74.70
2017-09-06T20:40:14.007Z,74.20
2017-09-06T20:42:41.571Z,74.20
2017-09-06T20:45:09.159Z,74.60
2017-09-06T20:47:36.721Z,74.80
2017-09-06T20:50:05.020Z,74.90
2017-09-06T20:52:32.558Z,74.90
2017-09-06T20:55:00.124Z,74.90
2017-09-06T20:57:27.662Z,75.10
2017-09-06T20:59:55.217Z,74.80
2017-09-06T21:02:22.747Z,75.20
2017-09-06T21:04:50.320Z,75.40
2017-09-06T21:07:17.877Z,75.40
2017-09-06T21:09:45.403Z,75.50
2017-09-06T21:12:12.961Z,75.60
2017-09-06T21:14:40.537Z,76.10
2017-09-06T21:17:08.100Z,76.00
2017-09-06T21:19:35.674Z,75.90
2017-09-06T21:22:03.214Z,76.20
2017-09-06T21:24:30.802Z,75.60
2017-09-06T21:26:58.343Z,75.70
2017-09-06T21:29:25.886Z,76.10
2017-09-06T21:31:53.453Z,76.10
2017-09-06T21:34:21.006Z,76.60
2017-09-06T21:36:48.583Z,76.40
2017-09-06T21:39:16.129Z,76.40
2017-09-06T21:41:43.707Z,76.10
2017-09-06T21:44:11.266Z,76.20
2017-09-06T21:46:38.815Z,76.30
2017-09-06T21:49:06.385Z,76.50
2017-09-06T21:51:33.905Z,76.40
2017-09-06T21:54:01.430Z,76.40
2017-09-06T21:56:29.006Z,76.50
2017-09-06T21:58:56.601Z,76.30
2017-09-06T22:01:24.205Z,76.10
2017-09-06T22:03:51.730Z,76.10
2017-09-06T22:06:19.402Z,76.30
2017-09-06T22:08:46.950Z,76.30
2017-09-06T22:11:14.479Z,76.00
2017-09-06T22:13:42.037Z,76.30
2017-09-06T22:16:09.599Z,76.20
2017-09-06T22:18:37.121Z,76.90
2017-09-06T22:21:04.690Z,77.40
2017-09-06T22:24:05.066Z,77.10
2017-09-06T22:26:32.626Z,76.90
2017-09-06T22:29:00.162Z,77.10
2017-09-06T22:31:27.732Z,76.40
2017-09-06T22:33:55.259Z,76.70
2017-09-06T22:36:22.783Z,76.60
2017-09-06T22:38:50.339Z,76.80
2017-09-06T22:41:17.880Z,77.40
2017-09-06T22:43:45.443Z,77.20
2017-09-06T22:46:12.980Z,77.00
2017-09-06T22:48:40.580Z,77.00
2017-09-06T22:51:08.114Z,77.10
2017-09-06T22:53:35.643Z,77.20
2017-09-06T22:56:03.962Z,78.00
2017-09-06T22:58:31.499Z,77.50
2017-09-06T23:00:59.062Z,77.70
2017-09-06T23:03:26.593Z,77.50
2017-09-06T23:05:54.156Z,77.80
2017-09-06T23:08:21.732Z,77.80
2017-09-06T23:10:50.036Z,78.20
2017-09-06T23:13:17.598Z,78.20
2017-09-06T23:15:45.126Z,78.20
2017-09-06T23:18:12.650Z,78.00
2017-09-06T23:20:40.201Z,78.30
2017-09-06T23:23:07.800Z,78.10
2017-09-06T23:25:35.327Z,78.40
2017-09-06T23:28:02.851Z,78.50
2017-09-06T23:30:30.406Z,78.40
2017-09-06T23:32:57.943Z,78.50
2017-09-06T23:35:25.518Z,77.80
2017-09-06T23:37:53.050Z,78.20
2017-09-06T23:40:20.635Z,78.10
2017-09-06T23:42:48.991Z,78.10
2017-09-06T23:45:17.293Z,78.10
2017-09-06T23:47:44.855Z,78.00
2017-09-06T23:50:12.413Z,78.30
2017-09-06T23:52:39.983Z,78.10
2017-09-06T23:55:08.274Z,79.10
2017-09-06T23:57:35.838Z,79.00
